Avery, Iowa
Current Conditions -  °F | °C
As of 8:53 PM on Monday 26 Jan 2015 (Local Time) from KOTM Reporting Station
Clear Clear  
Wind Chill:   Ceiling: Unl
Heat Index:   Visibility: 10mi
Dew Point:   Wind: 13mph
Humidity: 86%   Direction: 310°NW
Pressure: 29.91"   Gusts: NA
Location:  41.0299°N, 92.7795°W
Report Text: KOTM 270253Z AUTO 31011KT 10SM CLR 04/02 A2991 RMK AO2 SLP134 T00440022 51015
Loading
Personal Weather Stations






























Interactive Weather Map New forecast layout! Learn more

10-Day Weather Forecast

Advertisements
Track Severe Weather on mobile